Time,TemperatureF,DewpointF,PressureIn,WindDirection,WindDirectionDegrees,WindSpeedMPH,WindSpeedGustMPH,Humidity,HourlyPrecipIn,Conditions,Clouds,dailyrainin,SoftwareType,DateUTC
2013-02-20 00:00:00,61.3,59.3,30.09,SSW,197,0.0,0.0,93,0.00,,,0.00,WeatherTracker,2013-02-20 05:00:00,
2013-02-20 00:05:00,61.2,59.2,30.09,SSW,197,0.0,0.0,93,0.00,,,0.00,WeatherTracker,2013-02-20 05:05:00,
2013-02-20 00:10:00,61.2,59.5,30.09,SSW,197,0.0,0.0,94,0.00,,,0.00,WeatherTracker,2013-02-20 05:10:00,
2013-02-20 00:15:00,61.3,59.6,30.09,SSW,197,0.0,0.0,94,0.00,,,0.00,WeatherTracker,2013-02-20 05:15:00,
2013-02-20 00:20:00,61.2,59.2,30.09,SSW,197,0.0,0.0,93,0.00,,,0.00,WeatherTracker,2013-02-20 05:20:00,
2013-02-20 00:25:00,61.0,59.0,30.09,SSW,197,0.0,0.0,93,0.00,,,0.00,WeatherTracker,2013-02-20 05:25:00,
2013-02-20 00:30:00,60.8,58.8,30.10,SSW,197,0.0,0.0,93,0.00,,,0.00,WeatherTracker,2013-02-20 05:30:00,
2013-02-20 00:35:00,60.8,58.8,30.09,SSW,197,0.0,0.0,93,0.00,,,0.00,WeatherTracker,2013-02-20 05:35:00,
2013-02-20 00:40:00,60.8,58.8,30.09,SSW,197,0.0,0.0,93,0.00,,,0.00,WeatherTracker,2013-02-20 05:40:00,
2013-02-20 00:46:00,60.7,58.7,30.09,SSW,197,0.0,0.0,93,0.00,,,0.00,WeatherTracker,2013-02-20 05:46:00,
2013-02-20 00:51:00,60.6,58.6,30.09,SSW,197,0.0,0.0,93,0.00,,,0.00,WeatherTracker,2013-02-20 05:51:00,
2013-02-20 00:56:00,60.6,58.6,30.09,SSW,197,0.0,0.0,93,0.00,,,0.00,WeatherTracker,2013-02-20 05:56:00,
2013-02-20 01:01:00,60.6,58.9,30.09,SSW,197,0.0,0.0,94,0.00,,,0.00,WeatherTracker,2013-02-20 06:01:00,
2013-02-20 01:06:00,60.6,58.9,30.09,SSW,197,0.0,0.0,94,0.00,,,0.00,WeatherTracker,2013-02-20 06:06:00,
2013-02-20 01:11:00,60.4,58.4,30.09,SSW,197,0.0,0.0,93,0.00,,,0.00,WeatherTracker,2013-02-20 06:11:00,
2013-02-20 01:16:00,60.3,58.3,30.09,SSW,197,0.0,0.0,93,0.00,,,0.00,WeatherTracker,2013-02-20 06:16:00,
2013-02-20 01:21:00,60.4,58.7,30.09,SSW,197,0.0,0.0,94,0.00,,,0.00,WeatherTracker,2013-02-20 06:21:00,
2013-02-20 01:26:00,60.5,58.8,30.09,SSW,197,0.0,0.0,94,0.00,,,0.00,WeatherTracker,2013-02-20 06:26:00,
2013-02-20 01:31:00,60.5,59.1,30.09,SSW,197,0.0,0.0,95,0.00,,,0.00,WeatherTracker,2013-02-20 06:31:00,
2013-02-20 01:36:00,60.4,58.7,30.09,SSW,197,0.0,0.0,94,0.00,,,0.00,WeatherTracker,2013-02-20 06:36:00,
2013-02-20 01:41:00,60.4,58.7,30.09,SSW,197,0.0,0.0,94,0.00,,,0.00,WeatherTracker,2013-02-20 06:41:00,
2013-02-20 01:46:00,60.4,59.0,30.09,SSW,197,0.0,0.0,95,0.00,,,0.00,WeatherTracker,2013-02-20 06:46:00,
2013-02-20 01:51:00,60.4,59.0,30.09,SSW,197,0.0,0.0,95,0.00,,,0.00,WeatherTracker,2013-02-20 06:51:00,
2013-02-20 01:56:00,60.4,59.0,30.08,SSW,197,0.0,0.0,95,0.00,,,0.00,WeatherTracker,2013-02-20 06:56:00,
2013-02-20 02:01:00,60.4,59.0,30.08,SSW,197,0.0,0.0,95,0.00,,,0.00,WeatherTracker,2013-02-20 07:01:00,
2013-02-20 02:06:00,60.4,59.0,30.07,SSW,197,0.0,0.0,95,0.00,,,0.00,WeatherTracker,2013-02-20 07:06:00,
2013-02-20 02:11:00,60.5,59.4,30.08,SSW,197,0.0,0.0,96,0.00,,,0.00,WeatherTracker,2013-02-20 07:11:00,
2013-02-20 02:16:00,60.6,59.5,30.08,SSW,197,0.0,0.0,96,0.00,,,0.00,WeatherTracker,2013-02-20 07:16:00,
2013-02-20 02:21:00,60.6,59.2,30.08,SSW,197,0.0,0.0,95,0.00,,,0.00,WeatherTracker,2013-02-20 07:21:00,
2013-02-20 02:26:00,60.6,59.2,30.08,SSW,197,0.0,0.0,95,0.00,,,0.00,WeatherTracker,2013-02-20 07:26:00,
2013-02-20 02:31:00,60.6,59.2,30.08,SSW,197,0.0,0.0,95,0.00,,,0.00,WeatherTracker,2013-02-20 07:31:00,
2013-02-20 02:36:00,60.5,59.1,30.08,SSW,197,0.0,0.0,95,0.00,,,0.00,WeatherTracker,2013-02-20 07:36:00,
2013-02-20 02:42:00,60.4,59.0,30.07,SSW,197,0.0,0.0,95,0.00,,,0.00,WeatherTracker,2013-02-20 07:42:00,
2013-02-20 02:46:00,60.4,59.0,30.07,SSW,197,0.0,0.0,95,0.00,,,0.00,WeatherTracker,2013-02-20 07:46:00,
2013-02-20 02:52:00,60.4,59.0,30.07,SSW,197,0.0,0.0,95,0.00,,,0.00,WeatherTracker,2013-02-20 07:52:00,
2013-02-20 02:57:00,60.3,58.9,30.07,SSW,197,0.0,0.0,95,0.00,,,0.00,WeatherTracker,2013-02-20 07:57:00,
2013-02-20 03:05:00,60.2,58.8,30.07,SSW,197,0.0,0.0,95,0.00,,,0.00,WeatherTracker,2013-02-20 08:05:00,
2013-02-20 03:10:00,60.1,58.7,30.07,SSW,197,0.0,0.0,95,0.00,,,0.00,WeatherTracker,2013-02-20 08:10:00,
2013-02-20 03:15:00,60.0,58.6,30.07,SSW,197,0.0,0.0,95,0.00,,,0.00,WeatherTracker,2013-02-20 08:15:00,
2013-02-20 03:20:00,59.9,58.5,30.07,SSW,197,0.0,0.0,95,0.00,,,0.00,WeatherTracker,2013-02-20 08:20:00,
2013-02-20 03:25:00,59.9,58.5,30.07,SSW,197,0.0,0.0,95,0.00,,,0.00,WeatherTracker,2013-02-20 08:25:00,
2013-02-20 03:30:00,59.9,58.5,30.07,SSW,197,0.0,0.0,95,0.00,,,0.00,WeatherTracker,2013-02-20 08:30:00,
2013-02-20 03:35:00,59.8,58.4,30.07,SSW,197,0.0,0.0,95,0.00,,,0.00,WeatherTracker,2013-02-20 08:35:00,
2013-02-20 03:40:00,59.7,58.3,30.07,SSW,197,0.0,0.0,95,0.00,,,0.00,WeatherTracker,2013-02-20 08:40:00,
2013-02-20 03:45:00,59.7,58.3,30.07,SSW,197,0.0,0.0,95,0.00,,,0.00,WeatherTracker,2013-02-20 08:45:00,
2013-02-20 03:50:00,59.6,58.2,30.07,SSW,197,0.0,0.0,95,0.00,,,0.00,WeatherTracker,2013-02-20 08:50:00,
2013-02-20 03:55:00,59.5,58.1,30.07,SSW,197,0.0,0.0,95,0.00,,,0.00,WeatherTracker,2013-02-20 08:55:00,
2013-02-20 04:00:00,59.4,58.0,30.07,SSW,197,0.0,0.0,95,0.00,,,0.00,WeatherTracker,2013-02-20 09:00:00,
2013-02-20 04:05:00,59.3,57.9,30.06,SSW,197,0.0,0.0,95,0.00,,,0.00,WeatherTracker,2013-02-20 09:05:00,
2013-02-20 04:10:00,59.3,57.9,30.06,SSW,197,0.0,0.0,95,0.00,,,0.00,WeatherTracker,2013-02-20 09:10:00,
2013-02-20 04:15:00,59.2,57.8,30.06,SSW,197,0.0,0.0,95,0.00,,,0.00,WeatherTracker,2013-02-20 09:15:00,
2013-02-20 04:20:00,59.2,57.8,30.06,SSW,197,0.0,0.0,95,0.00,,,0.00,WeatherTracker,2013-02-20 09:20:00,
2013-02-20 04:25:00,59.1,57.7,30.06,SSW,197,0.0,0.0,95,0.00,,,0.00,WeatherTracker,2013-02-20 09:25:00,
2013-02-20 04:30:00,59.0,57.6,30.06,SSW,197,0.0,0.0,95,0.00,,,0.00,WeatherTracker,2013-02-20 09:30:00,
2013-02-20 04:35:00,59.0,57.6,30.06,SSW,197,0.0,0.0,95,0.00,,,0.00,WeatherTracker,2013-02-20 09:35:00,
2013-02-20 04:40:00,59.0,57.6,30.06,SSW,197,0.0,0.0,95,0.00,,,0.00,WeatherTracker,2013-02-20 09:40:00,
2013-02-20 04:45:00,58.9,57.5,30.07,SSW,197,0.0,0.0,95,0.00,,,0.00,WeatherTracker,2013-02-20 09:45:00,
2013-02-20 04:50:00,58.8,57.4,30.07,SSW,197,0.0,0.0,95,0.00,,,0.00,WeatherTracker,2013-02-20 09:50:00,
2013-02-20 04:55:00,58.7,57.0,30.07,SSW,197,0.0,0.0,94,0.00,,,0.00,WeatherTracker,2013-02-20 09:55:00,
2013-02-20 05:00:00,58.7,57.3,30.08,WNW,299,2.0,0.0,95,0.00,,,0.00,WeatherTracker,2013-02-20 10:00:00,
2013-02-20 05:05:00,59.3,58.2,30.07,NW,309,0.0,0.0,96,0.00,,,0.00,WeatherTracker,2013-02-20 10:05:00,
2013-02-20 05:10:00,59.6,58.7,30.07,NW,309,0.0,0.0,97,0.00,,,0.00,WeatherTracker,2013-02-20 10:10:00,
2013-02-20 05:15:00,59.8,58.7,30.07,NW,309,0.0,0.0,96,0.00,,,0.00,WeatherTracker,2013-02-20 10:15:00,
2013-02-20 05:21:00,59.8,58.7,30.07,NW,309,0.0,0.0,96,0.00,,,0.00,WeatherTracker,2013-02-20 10:21:00,
2013-02-20 05:26:00,59.8,58.7,30.08,NW,309,0.0,0.0,96,0.00,,,0.00,WeatherTracker,2013-02-20 10:26:00,
2013-02-20 05:31:00,59.9,58.8,30.08,NW,309,0.0,0.0,96,0.00,,,0.00,WeatherTracker,2013-02-20 10:31:00,
2013-02-20 05:36:00,59.9,58.8,30.08,NW,309,0.0,0.0,96,0.00,,,0.00,WeatherTracker,2013-02-20 10:36:00,
2013-02-20 05:41:00,59.8,58.7,30.08,NW,309,0.0,0.0,96,0.00,,,0.00,WeatherTracker,2013-02-20 10:41:00,
2013-02-20 05:46:00,59.8,58.7,30.08,NW,309,0.0,0.0,96,0.00,,,0.00,WeatherTracker,2013-02-20 10:46:00,
2013-02-20 05:51:00,59.7,58.6,30.07,NW,309,0.0,0.0,96,0.00,,,0.00,WeatherTracker,2013-02-20 10:51:00,
2013-02-20 05:56:00,59.7,58.6,30.08,NW,309,0.0,0.0,96,0.00,,,0.00,WeatherTracker,2013-02-20 10:56:00,
2013-02-20 06:01:00,59.6,58.5,30.08,NW,309,0.0,0.0,96,0.00,,,0.00,WeatherTracker,2013-02-20 11:01:00,
2013-02-20 06:06:00,59.5,58.1,30.08,NW,309,0.0,0.0,95,0.00,,,0.00,WeatherTracker,2013-02-20 11:06:00,
2013-02-20 06:11:00,59.4,58.3,30.09,NW,309,0.0,0.0,96,0.00,,,0.00,WeatherTracker,2013-02-20 11:11:00,
2013-02-20 06:16:00,59.6,58.5,30.08,NW,309,0.0,0.0,96,0.00,,,0.00,WeatherTracker,2013-02-20 11:16:00,
2013-02-20 06:21:00,59.5,58.4,30.09,NW,309,0.0,0.0,96,0.00,,,0.00,WeatherTracker,2013-02-20 11:21:00,
2013-02-20 06:26:00,59.4,58.3,30.09,NW,309,0.0,0.0,96,0.00,,,0.00,WeatherTracker,2013-02-20 11:26:00,
2013-02-20 06:31:00,59.3,58.2,30.09,NW,309,0.0,0.0,96,0.00,,,0.00,WeatherTracker,2013-02-20 11:31:00,
2013-02-20 06:36:00,59.3,58.2,30.09,NW,309,0.0,0.0,96,0.00,,,0.00,WeatherTracker,2013-02-20 11:36:00,
2013-02-20 06:41:00,59.1,58.0,30.09,NW,309,0.0,0.0,96,0.00,,,0.00,WeatherTracker,2013-02-20 11:41:00,
2013-02-20 06:46:00,59.1,58.0,30.09,NW,309,0.0,0.0,96,0.00,,,0.00,WeatherTracker,2013-02-20 11:46:00,
2013-02-20 06:51:00,59.0,57.9,30.09,NW,309,0.0,0.0,96,0.00,,,0.00,WeatherTracker,2013-02-20 11:51:00,
2013-02-20 06:56:00,59.1,58.0,30.09,NW,309,0.0,0.0,96,0.00,,,0.00,WeatherTracker,2013-02-20 11:56:00,
2013-02-20 07:01:00,59.2,58.1,30.09,NW,309,0.0,0.0,96,0.00,,,0.00,WeatherTracker,2013-02-20 12:01:00,
2013-02-20 07:06:00,59.3,58.4,30.10,NW,309,0.0,0.0,97,0.00,,,0.00,WeatherTracker,2013-02-20 12:06:00,
2013-02-20 07:11:00,59.5,58.6,30.10,NW,309,0.0,0.0,97,0.00,,,0.00,WeatherTracker,2013-02-20 12:11:00,
2013-02-20 07:16:00,59.6,58.7,30.10,NW,309,0.0,0.0,97,0.00,,,0.00,WeatherTracker,2013-02-20 12:16:00,
2013-02-20 07:21:00,59.8,58.9,30.10,NW,309,0.0,0.0,97,0.00,,,0.00,WeatherTracker,2013-02-20 12:21:00,
2013-02-20 07:26:00,60.1,59.2,30.10,NW,309,0.0,0.0,97,0.00,,,0.00,WeatherTracker,2013-02-20 12:26:00,
2013-02-20 07:32:00,60.4,59.5,30.10,NW,309,0.0,0.0,97,0.00,,,0.00,WeatherTracker,2013-02-20 12:32:00,
2013-02-20 07:37:00,60.7,59.8,30.11,NW,309,0.0,0.0,97,0.00,,,0.00,WeatherTracker,2013-02-20 12:37:00,
2013-02-20 07:42:00,61.2,60.3,30.11,NW,309,0.0,0.0,97,0.00,,,0.00,WeatherTracker,2013-02-20 12:42:00,
2013-02-20 07:47:00,61.8,60.9,30.11,NW,309,0.0,0.0,97,0.00,,,0.00,WeatherTracker,2013-02-20 12:47:00,
2013-02-20 07:52:00,62.3,61.7,30.11,NW,309,0.0,0.0,98,0.00,,,0.00,WeatherTracker,2013-02-20 12:52:00,
2013-02-20 07:57:00,62.7,62.1,30.11,NW,309,2.0,0.0,98,0.00,,,0.00,WeatherTracker,2013-02-20 12:57:00,
2013-02-20 08:02:00,63.0,62.4,30.11,NNW,336,0.0,0.0,98,0.00,,,0.00,WeatherTracker,2013-02-20 13:02:00,
2013-02-20 08:07:00,63.3,62.7,30.11,NNW,331,1.0,0.0,98,0.00,,,0.00,WeatherTracker,2013-02-20 13:07:00,
2013-02-20 08:12:00,63.5,62.9,30.11,NNW,332,0.0,0.0,98,0.00,,,0.00,WeatherTracker,2013-02-20 13:12:00,
2013-02-20 08:17:00,63.7,63.1,30.11,NNW,332,0.0,0.0,98,0.00,,,0.00,WeatherTracker,2013-02-20 13:17:00,
2013-02-20 08:22:00,63.8,62.9,30.12,NNW,346,6.0,0.0,97,0.00,,,0.00,WeatherTracker,2013-02-20 13:22:00,
2013-02-20 08:27:00,63.9,63.3,30.12,North,355,1.0,0.0,98,0.00,,,0.00,WeatherTracker,2013-02-20 13:27:00,
2013-02-20 08:32:00,64.1,63.5,30.12,North,360,0.0,0.0,98,0.00,,,0.00,WeatherTracker,2013-02-20 13:32:00,
2013-02-20 08:37:00,64.3,63.4,30.12,NW,319,5.0,0.0,97,0.00,,,0.00,WeatherTracker,2013-02-20 13:37:00,
2013-02-20 08:42:00,64.3,63.4,30.12,NNW,345,6.0,0.0,97,0.00,,,0.00,WeatherTracker,2013-02-20 13:42:00,
2013-02-20 08:47:00,64.3,63.4,30.12,North,355,6.0,0.0,97,0.00,,,0.00,WeatherTracker,2013-02-20 13:47:00,
2013-02-20 08:52:00,64.3,63.4,30.12,NNW,333,2.0,0.0,97,0.00,,,0.00,WeatherTracker,2013-02-20 13:52:00,
2013-02-20 08:57:00,64.4,63.5,30.11,North,355,1.0,0.0,97,0.00,,,0.00,WeatherTracker,2013-02-20 13:57:00,
2013-02-20 09:02:00,64.4,63.5,30.11,NNE,33,1.0,0.0,97,0.00,,,0.00,WeatherTracker,2013-02-20 14:02:00,
2013-02-20 09:07:00,64.4,63.5,30.11,ENE,77,1.0,0.0,97,0.00,,,0.00,WeatherTracker,2013-02-20 14:07:00,
2013-02-20 09:12:00,64.4,63.5,30.11,East,80,1.0,0.0,97,0.00,,,0.00,WeatherTracker,2013-02-20 14:12:00,
2013-02-20 09:17:00,64.4,63.5,30.11,North,360,1.0,0.0,97,0.00,,,0.00,WeatherTracker,2013-02-20 14:17:00,
2013-02-20 09:22:00,64.6,63.7,30.11,NNE,26,4.0,0.0,97,0.00,,,0.00,WeatherTracker,2013-02-20 14:22:00,
2013-02-20 09:27:00,64.7,63.8,30.11,NE,34,0.0,0.0,97,0.00,,,0.00,WeatherTracker,2013-02-20 14:27:00,
2013-02-20 09:32:00,64.9,64.0,30.11,NW,304,4.0,0.0,97,0.00,,,0.00,WeatherTracker,2013-02-20 14:32:00,
2013-02-20 09:37:00,65.1,63.9,30.11,NNE,19,3.0,0.0,96,0.00,,,0.00,WeatherTracker,2013-02-20 14:37:00,
2013-02-20 09:42:00,65.0,63.8,30.11,ENE,78,4.0,0.0,96,0.00,,,0.00,WeatherTracker,2013-02-20 14:42:00,
2013-02-20 09:47:00,65.0,63.5,30.11,NE,45,1.0,0.0,95,0.00,,,0.00,WeatherTracker,2013-02-20 14:47:00,
2013-02-20 09:53:00,65.3,63.5,30.11,NE,49,0.0,0.0,94,0.00,,,0.00,WeatherTracker,2013-02-20 14:53:00,
2013-02-20 09:58:00,65.8,64.0,30.11,North,355,2.0,0.0,94,0.00,,,0.00,WeatherTracker,2013-02-20 14:58:00,
2013-02-20 10:03:00,66.4,64.3,30.11,NE,55,0.0,0.0,93,0.00,,,0.00,WeatherTracker,2013-02-20 15:03:00,
2013-02-20 10:08:00,66.8,64.1,30.11,ENE,67,3.0,0.0,91,0.00,,,0.00,WeatherTracker,2013-02-20 15:08:00,
2013-02-20 10:13:00,67.1,64.1,30.11,North,9,2.0,0.0,90,0.00,,,0.00,WeatherTracker,2013-02-20 15:13:00,
2013-02-20 10:18:00,67.5,64.5,30.11,ESE,119,7.0,0.0,90,0.00,,,0.00,WeatherTracker,2013-02-20 15:18:00,
2013-02-20 10:23:00,67.9,64.5,30.11,North,11,1.0,0.0,89,0.00,,,0.00,WeatherTracker,2013-02-20 15:23:00,
2013-02-20 10:28:00,68.3,64.6,30.12,North,9,0.0,0.0,88,0.00,,,0.00,WeatherTracker,2013-02-20 15:28:00,
2013-02-20 10:33:00,68.6,64.9,30.12,North,5,0.0,0.0,88,0.00,,,0.00,WeatherTracker,2013-02-20 15:33:00,
2013-02-20 10:38:00,68.9,64.9,30.11,NE,46,1.0,0.0,87,0.00,,,0.00,WeatherTracker,2013-02-20 15:38:00,
2013-02-20 10:43:00,69.2,64.8,30.12,North,360,5.0,0.0,86,0.00,,,0.00,WeatherTracker,2013-02-20 15:43:00,
2013-02-20 10:48:00,69.6,64.9,30.11,ENE,71,0.0,0.0,85,0.00,,,0.00,WeatherTracker,2013-02-20 15:48:00,
2013-02-20 10:53:00,69.9,65.2,30.11,NW,326,0.0,0.0,85,0.00,,,0.00,WeatherTracker,2013-02-20 15:53:00,
2013-02-20 10:58:00,70.3,65.6,30.12,North,9,4.0,0.0,85,0.00,,,0.00,WeatherTracker,2013-02-20 15:58:00,
2013-02-20 11:03:00,70.8,65.7,30.11,ENE,69,1.0,0.0,84,0.00,,,0.00,WeatherTracker,2013-02-20 16:03:00,
2013-02-20 11:08:00,71.6,65.8,30.11,NNE,13,4.0,0.0,82,0.00,,,0.00,WeatherTracker,2013-02-20 16:08:00,
2013-02-20 11:13:00,72.1,66.3,30.11,North,10,1.0,0.0,82,0.00,,,0.00,WeatherTracker,2013-02-20 16:13:00,
2013-02-20 11:18:00,72.7,66.2,30.11,East,79,2.0,0.0,80,0.00,,,0.00,WeatherTracker,2013-02-20 16:18:00,
2013-02-20 11:23:00,73.2,65.9,30.11,ESE,120,0.0,0.0,78,0.00,,,0.00,WeatherTracker,2013-02-20 16:23:00,
2013-02-20 11:28:00,73.6,65.9,30.11,SSE,152,1.0,0.0,77,0.00,,,0.00,WeatherTracker,2013-02-20 16:28:00,
2013-02-20 11:33:00,74.2,66.9,30.11,SW,218,1.0,0.0,78,0.00,,,0.00,WeatherTracker,2013-02-20 16:33:00,
2013-02-20 11:39:00,74.6,66.1,30.11,ENE,57,0.0,0.0,75,0.00,,,0.00,WeatherTracker,2013-02-20 16:39:00,
2013-02-20 11:44:00,74.3,66.2,30.10,NNW,329,1.0,0.0,76,0.00,,,0.00,WeatherTracker,2013-02-20 16:44:00,
2013-02-20 11:49:00,74.4,67.1,30.09,WNW,285,2.0,0.0,78,0.00,,,0.00,WeatherTracker,2013-02-20 16:49:00,
2013-02-20 11:54:00,74.4,65.2,30.09,North,360,1.0,0.0,73,0.00,,,0.00,WeatherTracker,2013-02-20 16:54:00,
2013-02-20 11:59:00,74.3,65.5,30.09,NNE,14,1.0,0.0,74,0.00,,,0.00,WeatherTracker,2013-02-20 16:59:00,
2013-02-20 12:04:00,74.7,65.5,30.09,ESE,119,0.0,0.0,73,0.00,,,0.00,WeatherTracker,2013-02-20 17:04:00,
2013-02-20 12:09:00,76.0,66.3,30.08,South,178,0.0,0.0,72,0.00,,,0.00,WeatherTracker,2013-02-20 17:09:00,
2013-02-20 12:14:00,76.7,65.7,30.07,South,186,0.0,0.0,69,0.00,,,0.00,WeatherTracker,2013-02-20 17:14:00,
2013-02-20 12:19:00,77.3,65.9,30.07,SSE,147,1.0,0.0,68,0.00,,,0.00,WeatherTracker,2013-02-20 17:19:00,
2013-02-20 12:24:00,77.5,65.2,30.07,East,96,1.0,0.0,66,0.00,,,0.00,WeatherTracker,2013-02-20 17:24:00,
2013-02-20 12:29:00,77.5,65.2,30.06,ENE,62,1.0,0.0,66,0.00,,,0.00,WeatherTracker,2013-02-20 17:29:00,
2013-02-20 12:34:00,77.3,65.9,30.06,NNW,348,3.0,0.0,68,0.00,,,0.00,WeatherTracker,2013-02-20 17:34:00,
2013-02-20 12:39:00,77.4,66.4,30.05,WNW,301,2.0,0.0,69,0.00,,,0.00,WeatherTracker,2013-02-20 17:39:00,
2013-02-20 12:44:00,77.3,65.0,30.05,NE,45,0.0,0.0,66,0.00,,,0.00,WeatherTracker,2013-02-20 17:44:00,
2013-02-20 12:49:00,77.3,65.0,30.04,NW,313,1.0,0.0,66,0.00,,,0.00,WeatherTracker,2013-02-20 17:49:00,
2013-02-20 12:54:00,77.6,64.9,30.05,SE,128,2.0,0.0,65,0.00,,,0.00,WeatherTracker,2013-02-20 17:54:00,
2013-02-20 12:59:00,77.8,65.5,30.05,North,355,1.0,0.0,66,0.00,,,0.00,WeatherTracker,2013-02-20 17:59:00,
2013-02-20 13:04:00,77.9,66.0,30.04,NW,320,0.0,0.0,67,0.00,,,0.00,WeatherTracker,2013-02-20 18:04:00,
2013-02-20 13:09:00,78.7,66.4,30.04,WSW,246,4.0,0.0,66,0.00,,,0.00,WeatherTracker,2013-02-20 18:09:00,
2013-02-20 13:14:00,79.2,67.3,30.04,WNW,285,2.0,0.0,67,0.00,,,0.00,WeatherTracker,2013-02-20 18:14:00,
2013-02-20 13:19:00,79.4,66.6,30.03,WNW,295,4.0,0.0,65,0.00,,,0.00,WeatherTracker,2013-02-20 18:19:00,
2013-02-20 13:24:00,79.4,66.6,30.04,West,264,0.0,0.0,65,0.00,,,0.00,WeatherTracker,2013-02-20 18:24:00,
2013-02-20 13:29:00,79.5,65.8,30.04,West,275,0.0,0.0,63,0.00,,,0.00,WeatherTracker,2013-02-20 18:29:00,
2013-02-20 13:34:00,79.6,64.9,30.04,WSW,243,3.0,0.0,61,0.00,,,0.00,WeatherTracker,2013-02-20 18:34:00,
2013-02-20 13:39:00,79.7,65.5,30.03,West,271,5.0,0.0,62,0.00,,,0.00,WeatherTracker,2013-02-20 18:39:00,
2013-02-20 13:45:00,79.7,64.6,30.03,SSW,194,3.0,0.0,60,0.00,,,0.00,WeatherTracker,2013-02-20 18:45:00,
2013-02-20 13:50:00,79.5,64.8,30.04,WSW,240,5.0,0.0,61,0.00,,,0.00,WeatherTracker,2013-02-20 18:50:00,
2013-02-20 13:55:00,79.2,64.6,30.04,WNW,286,2.0,0.0,61,0.00,,,0.00,WeatherTracker,2013-02-20 18:55:00,
2013-02-20 14:00:00,79.0,66.2,30.04,West,272,5.0,0.0,65,0.00,,,0.00,WeatherTracker,2013-02-20 19:00:00,
2013-02-20 14:05:00,78.3,65.1,30.04,West,279,8.0,0.0,64,0.00,,,0.00,WeatherTracker,2013-02-20 19:05:00,
2013-02-20 14:10:00,77.4,65.6,30.04,WNW,288,4.0,0.0,67,0.00,,,0.00,WeatherTracker,2013-02-20 19:10:00,
2013-02-20 14:15:00,77.2,65.8,30.03,WNW,286,5.0,0.0,68,0.00,,,0.00,WeatherTracker,2013-02-20 19:15:00,
2013-02-20 14:20:00,77.1,66.1,30.03,WNW,297,7.0,0.0,69,0.00,,,0.00,WeatherTracker,2013-02-20 19:20:00,
2013-02-20 14:25:00,77.3,65.5,30.03,West,264,1.0,0.0,67,0.00,,,0.00,WeatherTracker,2013-02-20 19:25:00,
2013-02-20 14:30:00,77.5,64.8,30.03,WNW,299,7.0,0.0,65,0.00,,,0.00,WeatherTracker,2013-02-20 19:30:00,
2013-02-20 14:35:00,77.7,64.1,30.02,WNW,284,7.0,0.0,63,0.00,,,0.00,WeatherTracker,2013-02-20 19:35:00,
2013-02-20 14:40:00,77.6,63.1,30.02,NW,317,2.0,0.0,61,0.00,,,0.00,WeatherTracker,2013-02-20 19:40:00,
2013-02-20 14:45:00,77.9,62.9,30.02,SW,221,0.0,0.0,60,0.00,,,0.00,WeatherTracker,2013-02-20 19:45:00,
2013-02-20 14:50:00,78.1,62.6,30.02,West,273,8.0,0.0,59,0.00,,,0.00,WeatherTracker,2013-02-20 19:50:00,
2013-02-20 14:55:00,77.9,63.3,30.03,WNW,290,5.0,0.0,61,0.00,,,0.00,WeatherTracker,2013-02-20 19:55:00,
2013-02-20 15:00:00,78.1,63.1,30.02,NW,304,2.0,0.0,60,0.00,,,0.00,WeatherTracker,2013-02-20 20:00:00,
2013-02-20 15:05:00,78.2,63.6,30.02,SW,218,2.0,0.0,61,0.00,,,0.00,WeatherTracker,2013-02-20 20:05:00,
2013-02-20 15:10:00,78.0,63.9,30.02,West,259,1.0,0.0,62,0.00,,,0.00,WeatherTracker,2013-02-20 20:10:00,
2013-02-20 15:15:00,77.7,64.1,30.02,WSW,252,7.0,0.0,63,0.00,,,0.00,WeatherTracker,2013-02-20 20:15:00,
2013-02-20 15:20:00,77.5,63.4,30.02,SW,232,7.0,0.0,62,0.00,,,0.00,WeatherTracker,2013-02-20 20:20:00,
2013-02-20 15:25:00,77.5,63.9,30.01,WSW,252,1.0,0.0,63,0.00,,,0.00,WeatherTracker,2013-02-20 20:25:00,
2013-02-20 15:30:00,77.6,64.0,30.01,WNW,302,6.0,0.0,63,0.00,,,0.00,WeatherTracker,2013-02-20 20:30:00,
2013-02-20 15:35:00,77.5,63.9,30.02,West,261,2.0,0.0,63,0.00,,,0.00,WeatherTracker,2013-02-20 20:35:00,
2013-02-20 15:40:00,77.1,63.1,30.02,West,267,4.0,0.0,62,0.00,,,0.00,WeatherTracker,2013-02-20 20:40:00,
2013-02-20 15:45:00,77.1,63.1,30.01,NW,304,4.0,0.0,62,0.00,,,0.00,WeatherTracker,2013-02-20 20:45:00,
2013-02-20 15:50:00,76.9,63.8,30.01,West,264,4.0,0.0,64,0.00,,,0.00,WeatherTracker,2013-02-20 20:50:00,
2013-02-20 15:55:00,76.4,63.3,30.01,WSW,247,4.0,0.0,64,0.00,,,0.00,WeatherTracker,2013-02-20 20:55:00,
2013-02-20 16:00:00,76.1,64.3,30.02,WNW,293,5.0,0.0,67,0.00,,,0.00,WeatherTracker,2013-02-20 21:00:00,
2013-02-20 16:05:00,75.7,63.5,30.02,West,269,6.0,0.0,66,0.00,,,0.00,WeatherTracker,2013-02-20 21:05:00,
2013-02-20 16:10:00,75.6,63.9,30.03,ESE,123,0.0,0.0,67,0.00,,,0.00,WeatherTracker,2013-02-20 21:10:00,
2013-02-20 16:15:00,75.4,63.7,30.02,NW,304,8.0,0.0,67,0.00,,,0.00,WeatherTracker,2013-02-20 21:15:00,
2013-02-20 16:20:00,75.4,63.2,30.03,West,272,10.0,0.0,66,0.00,,,0.00,WeatherTracker,2013-02-20 21:20:00,
2013-02-20 16:26:00,75.1,63.4,30.03,WSW,245,6.0,0.0,67,0.00,,,0.00,WeatherTracker,2013-02-20 21:26:00,
2013-02-20 16:31:00,74.9,63.2,30.03,West,276,4.0,0.0,67,0.00,,,0.00,WeatherTracker,2013-02-20 21:31:00,
2013-02-20 16:36:00,74.8,62.7,30.04,West,276,1.0,0.0,66,0.00,,,0.00,WeatherTracker,2013-02-20 21:36:00,
2013-02-20 16:41:00,74.9,63.2,30.04,NW,323,7.0,0.0,67,0.00,,,0.00,WeatherTracker,2013-02-20 21:41:00,
2013-02-20 16:46:00,74.9,63.2,30.04,NW,314,5.0,0.0,67,0.00,,,0.00,WeatherTracker,2013-02-20 21:46:00,
2013-02-20 16:51:00,74.8,62.7,30.04,WNW,288,6.0,0.0,66,0.00,,,0.00,WeatherTracker,2013-02-20 21:51:00,
2013-02-20 16:56:00,74.7,63.8,30.04,WNW,298,7.0,0.0,69,0.00,,,0.00,WeatherTracker,2013-02-20 21:56:00,
2013-02-20 17:01:00,74.4,64.0,30.05,WNW,288,9.0,0.0,70,0.00,,,0.00,WeatherTracker,2013-02-20 22:01:00,
2013-02-20 17:06:00,74.1,63.7,30.04,WNW,300,6.0,0.0,70,0.00,,,0.00,WeatherTracker,2013-02-20 22:06:00,
2013-02-20 17:11:00,73.8,63.4,30.05,WNW,300,4.0,0.0,70,0.00,,,0.00,WeatherTracker,2013-02-20 22:11:00,
2013-02-20 17:16:00,73.5,63.5,30.06,WNW,290,4.0,0.0,71,0.00,,,0.00,WeatherTracker,2013-02-20 22:16:00,
2013-02-20 17:21:00,73.4,63.4,30.05,WNW,297,5.0,0.0,71,0.00,,,0.00,WeatherTracker,2013-02-20 22:21:00,
2013-02-20 17:26:00,73.2,63.6,30.05,West,275,5.0,0.0,72,0.00,,,0.00,WeatherTracker,2013-02-20 22:26:00,
2013-02-20 17:31:00,73.0,63.0,30.05,WNW,282,5.0,0.0,71,0.00,,,0.00,WeatherTracker,2013-02-20 22:31:00,
2013-02-20 17:36:00,72.6,63.0,30.05,WNW,297,5.0,0.0,72,0.00,,,0.00,WeatherTracker,2013-02-20 22:36:00,
2013-02-20 17:41:00,72.4,63.2,30.05,WNW,300,7.0,0.0,73,0.00,,,0.00,WeatherTracker,2013-02-20 22:41:00,
2013-02-20 17:46:00,72.2,63.1,30.05,NW,304,3.0,0.0,73,0.00,,,0.00,WeatherTracker,2013-02-20 22:46:00,
2013-02-20 17:51:00,72.1,63.3,30.05,WNW,288,5.0,0.0,74,0.00,,,0.00,WeatherTracker,2013-02-20 22:51:00,
2013-02-20 17:56:00,71.9,62.8,30.05,WNW,290,7.0,0.0,73,0.00,,,0.00,WeatherTracker,2013-02-20 22:56:00,
2013-02-20 18:01:00,71.6,62.9,30.06,NW,325,5.0,0.0,74,0.00,,,0.00,WeatherTracker,2013-02-20 23:01:00,
2013-02-20 18:06:00,71.1,62.8,30.05,NNW,328,6.0,0.0,75,0.00,,,0.00,WeatherTracker,2013-02-20 23:06:00,
2013-02-20 18:11:00,70.6,62.7,30.05,NW,306,6.0,0.0,76,0.00,,,0.00,WeatherTracker,2013-02-20 23:11:00,
2013-02-20 18:16:00,70.2,62.6,30.05,WNW,294,5.0,0.0,77,0.00,,,0.00,WeatherTracker,2013-02-20 23:16:00,
2013-02-20 18:21:00,69.9,62.7,30.05,WNW,290,4.0,0.0,78,0.00,,,0.00,WeatherTracker,2013-02-20 23:21:00,
2013-02-20 18:27:00,69.5,62.3,30.05,NW,305,5.0,0.0,78,0.00,,,0.00,WeatherTracker,2013-02-20 23:27:00,
2013-02-20 18:32:00,69.1,62.3,30.05,NW,309,0.0,0.0,79,0.00,,,0.00,WeatherTracker,2013-02-20 23:32:00,
2013-02-20 18:37:00,68.8,62.4,30.05,North,5,4.0,0.0,80,0.00,,,0.00,WeatherTracker,2013-02-20 23:37:00,
2013-02-20 18:42:00,68.4,62.0,30.05,NW,321,1.0,0.0,80,0.00,,,0.00,WeatherTracker,2013-02-20 23:42:00,
2013-02-20 18:47:00,68.1,62.0,30.05,WNW,296,4.0,0.0,81,0.00,,,0.00,WeatherTracker,2013-02-20 23:47:00,
2013-02-20 18:52:00,67.8,61.7,30.05,WNW,292,1.0,0.0,81,0.00,,,0.00,WeatherTracker,2013-02-20 23:52:00,
2013-02-20 18:57:00,67.6,61.9,30.05,WNW,300,0.0,0.0,82,0.00,,,0.00,WeatherTracker,2013-02-20 23:57:00,
2013-02-20 19:02:00,67.3,61.6,30.05,NW,309,3.0,0.0,82,0.00,,,0.00,WeatherTracker,2013-02-21 00:02:00,
2013-02-20 19:07:00,67.1,61.4,30.05,WNW,302,0.0,0.0,82,0.00,,,0.00,WeatherTracker,2013-02-21 00:07:00,
2013-02-20 19:12:00,66.9,61.2,30.05,NNW,338,0.0,0.0,82,0.00,,,0.00,WeatherTracker,2013-02-21 00:12:00,
2013-02-20 19:17:00,66.8,61.5,30.05,NNW,338,0.0,0.0,83,0.00,,,0.00,WeatherTracker,2013-02-21 00:17:00,
2013-02-20 19:22:00,66.6,61.3,30.05,NNW,338,1.0,0.0,83,0.00,,,0.00,WeatherTracker,2013-02-21 00:22:00,
2013-02-20 19:27:00,66.5,61.2,30.06,NNW,347,0.0,0.0,83,0.00,,,0.00,WeatherTracker,2013-02-21 00:27:00,
2013-02-20 19:32:00,66.3,61.0,30.06,NNW,347,1.0,0.0,83,0.00,,,0.00,WeatherTracker,2013-02-21 00:32:00,
2013-02-20 19:37:00,66.2,61.2,30.06,NNW,344,0.0,0.0,84,0.00,,,0.00,WeatherTracker,2013-02-21 00:37:00,
2013-02-20 19:42:00,66.1,61.1,30.06,NNW,344,0.0,0.0,84,0.00,,,0.00,WeatherTracker,2013-02-21 00:42:00,
2013-02-20 19:47:00,66.0,61.0,30.06,NNW,344,0.0,0.0,84,0.00,,,0.00,WeatherTracker,2013-02-21 00:47:00,
2013-02-20 19:52:00,65.9,61.3,30.06,NNW,343,0.0,0.0,85,0.00,,,0.00,WeatherTracker,2013-02-21 00:52:00,
2013-02-20 19:57:00,65.8,61.2,30.06,NNW,343,1.0,0.0,85,0.00,,,0.00,WeatherTracker,2013-02-21 00:57:00,
2013-02-20 20:02:00,65.8,61.2,30.07,NW,317,0.0,0.0,85,0.00,,,0.00,WeatherTracker,2013-02-21 01:02:00,
2013-02-20 20:07:00,65.6,61.3,30.07,NNW,330,1.0,0.0,86,0.00,,,0.00,WeatherTracker,2013-02-21 01:07:00,
2013-02-20 20:12:00,65.6,61.3,30.07,NNW,348,2.0,0.0,86,0.00,,,0.00,WeatherTracker,2013-02-21 01:12:00,
2013-02-20 20:17:00,65.6,61.3,30.07,NNW,330,2.0,0.0,86,0.00,,,0.00,WeatherTracker,2013-02-21 01:17:00,
2013-02-20 20:22:00,65.6,61.3,30.07,NNW,331,0.0,0.0,86,0.00,,,0.00,WeatherTracker,2013-02-21 01:22:00,
2013-02-20 20:27:00,65.6,61.3,30.07,NW,322,0.0,0.0,86,0.00,,,0.00,WeatherTracker,2013-02-21 01:27:00,
2013-02-20 20:32:00,65.6,61.3,30.07,NW,313,2.0,0.0,86,0.00,,,0.00,WeatherTracker,2013-02-21 01:32:00,
2013-02-20 20:37:00,65.6,61.3,30.07,North,9,2.0,0.0,86,0.00,,,0.00,WeatherTracker,2013-02-21 01:37:00,
2013-02-20 20:42:00,65.6,61.6,30.07,North,355,5.0,0.0,87,0.00,,,0.00,WeatherTracker,2013-02-21 01:42:00,
2013-02-20 20:47:00,65.6,61.6,30.07,NNW,341,5.0,0.0,87,0.00,,,0.00,WeatherTracker,2013-02-21 01:47:00,
2013-02-20 20:52:00,65.6,61.6,30.08,NNW,328,5.0,0.0,87,0.00,,,0.00,WeatherTracker,2013-02-21 01:52:00,
2013-02-20 20:57:00,65.6,61.6,30.08,NNW,332,0.0,0.0,87,0.00,,,0.00,WeatherTracker,2013-02-21 01:57:00,
2013-02-20 21:02:00,65.5,61.5,30.07,NNW,348,1.0,0.0,87,0.00,,,0.00,WeatherTracker,2013-02-21 02:02:00,
2013-02-20 21:07:00,65.4,61.4,30.07,NNW,331,1.0,0.0,87,0.00,,,0.00,WeatherTracker,2013-02-21 02:07:00,
2013-02-20 21:13:00,65.4,61.4,30.07,NNW,342,0.0,0.0,87,0.00,,,0.00,WeatherTracker,2013-02-21 02:13:00,
2013-02-20 21:17:00,65.4,61.4,30.08,NNW,346,1.0,0.0,87,0.00,,,0.00,WeatherTracker,2013-02-21 02:17:00,
2013-02-20 21:23:00,65.3,61.3,30.08,NW,316,1.0,0.0,87,0.00,,,0.00,WeatherTracker,2013-02-21 02:23:00,
2013-02-20 21:28:00,65.2,61.2,30.08,NNW,333,3.0,0.0,87,0.00,,,0.00,WeatherTracker,2013-02-21 02:28:00,
2013-02-20 21:33:00,65.2,61.2,30.08,NNW,330,1.0,0.0,87,0.00,,,0.00,WeatherTracker,2013-02-21 02:33:00,
2013-02-20 21:38:00,65.1,60.8,30.08,NNW,336,1.0,0.0,86,0.00,,,0.00,WeatherTracker,2013-02-21 02:38:00,
2013-02-20 21:43:00,65.1,60.8,30.08,NNW,336,0.0,0.0,86,0.00,,,0.00,WeatherTracker,2013-02-21 02:43:00,
2013-02-20 21:48:00,65.0,60.7,30.08,NNW,340,1.0,0.0,86,0.00,,,0.00,WeatherTracker,2013-02-21 02:48:00,
2013-02-20 21:53:00,64.9,60.6,30.08,NNW,348,1.0,0.0,86,0.00,,,0.00,WeatherTracker,2013-02-21 02:53:00,
2013-02-20 21:58:00,64.8,60.5,30.08,NNE,13,2.0,0.0,86,0.00,,,0.00,WeatherTracker,2013-02-21 02:58:00,
2013-02-20 22:03:00,64.7,60.4,30.09,NNW,346,2.0,0.0,86,0.00,,,0.00,WeatherTracker,2013-02-21 03:03:00,
2013-02-20 22:08:00,64.6,60.3,30.09,NNW,331,1.0,0.0,86,0.00,,,0.00,WeatherTracker,2013-02-21 03:08:00,
2013-02-20 22:13:00,64.5,60.2,30.08,NNE,28,4.0,0.0,86,0.00,,,0.00,WeatherTracker,2013-02-21 03:13:00,
2013-02-20 22:18:00,64.4,60.1,30.08,NNW,339,1.0,0.0,86,0.00,,,0.00,WeatherTracker,2013-02-21 03:18:00,
2013-02-20 22:23:00,64.3,60.0,30.09,NW,326,2.0,0.0,86,0.00,,,0.00,WeatherTracker,2013-02-21 03:23:00,
2013-02-20 22:28:00,64.2,59.9,30.09,NNW,347,1.0,0.0,86,0.00,,,0.00,WeatherTracker,2013-02-21 03:28:00,
2013-02-20 22:33:00,64.2,59.9,30.09,North,5,0.0,0.0,86,0.00,,,0.00,WeatherTracker,2013-02-21 03:33:00,
2013-02-20 22:38:00,64.1,59.8,30.09,North,10,0.0,0.0,86,0.00,,,0.00,WeatherTracker,2013-02-21 03:38:00,
2013-02-20 22:43:00,64.1,59.8,30.09,North,360,1.0,0.0,86,0.00,,,0.00,WeatherTracker,2013-02-21 03:43:00,
2013-02-20 22:48:00,64.0,59.4,30.09,North,360,1.0,0.0,85,0.00,,,0.00,WeatherTracker,2013-02-21 03:48:00,
2013-02-20 22:53:00,63.9,59.3,30.08,North,360,0.0,0.0,85,0.00,,,0.00,WeatherTracker,2013-02-21 03:53:00,
2013-02-20 22:58:00,63.8,59.2,30.08,North,360,0.0,0.0,85,0.00,,,0.00,WeatherTracker,2013-02-21 03:58:00,
2013-02-20 23:03:00,63.7,59.4,30.07,North,360,0.0,0.0,86,0.00,,,0.00,WeatherTracker,2013-02-21 04:03:00,
2013-02-20 23:08:00,63.5,59.2,30.07,North,360,0.0,0.0,86,0.00,,,0.00,WeatherTracker,2013-02-21 04:08:00,
2013-02-20 23:13:00,63.4,59.1,30.07,North,355,0.0,0.0,86,0.00,,,0.00,WeatherTracker,2013-02-21 04:13:00,
2013-02-20 23:18:00,63.4,59.1,30.07,North,5,0.0,0.0,86,0.00,,,0.00,WeatherTracker,2013-02-21 04:18:00,
2013-02-20 23:23:00,63.3,59.0,30.07,North,5,0.0,0.0,86,0.00,,,0.00,WeatherTracker,2013-02-21 04:23:00,
2013-02-20 23:29:00,63.2,58.9,30.07,North,5,0.0,0.0,86,0.00,,,0.00,WeatherTracker,2013-02-21 04:29:00,
2013-02-20 23:34:00,63.1,58.8,30.07,North,5,0.0,0.0,86,0.00,,,0.00,WeatherTracker,2013-02-21 04:34:00,
2013-02-20 23:39:00,63.1,58.8,30.07,North,5,0.0,0.0,86,0.00,,,0.00,WeatherTracker,2013-02-21 04:39:00,
2013-02-20 23:44:00,62.9,59.0,30.07,North,360,0.0,0.0,87,0.00,,,0.00,WeatherTracker,2013-02-21 04:44:00,
2013-02-20 23:49:00,62.9,59.0,30.07,ENE,57,0.0,0.0,87,0.00,,,0.00,WeatherTracker,2013-02-21 04:49:00,
2013-02-20 23:54:00,62.9,59.0,30.06,NNE,13,0.0,0.0,87,0.00,,,0.00,WeatherTracker,2013-02-21 04:54:00,
2013-02-20 23:59:00,62.9,58.6,30.06,NNE,17,1.0,0.0,86,0.00,,,0.00,WeatherTracker,2013-02-21 04:59:00,